メインページ
METAR-TAF:

METAR-TAF

空港 :

マイアミ, フロリダ州, アメリカ合衆国

マイアミ国際空港

緯度: 25-47-26N, 経度: 080-18-59W, 海抜: 3m

現時点の気象観測

当レポートは39分前の21:53(UTC)に作成
南東の風 7kt
気温 33°C
湿度 53%
気圧 1017 hPa
視程: 16.1km
高度3500ftの雲はほとんどない
高度18000ftの雲はほとんどない
高度30000ftの雲は散在している

METAR: KMIA 262153Z 14007KT 10SM FEW035 FEW180 SCT300 33/22 A3002 RMK AO2 SLP165 T03280222

時間: 18:32 (22:32 UTC)

予報

当レポートは1時間25分前の21:07(UTC)に作成
予報は26日の 21時(UTC)から 27日の 18時(UTC)まで有効
東/南東の風 10kt
視程: 10km
高度2500ftの雲はほとんどない
高度25000ftの雲は散在している
27日の 0000時(UTC)から
の風 5kt
視程: 10km
高度2500ftの雲はほとんどない
高度25000ftの雲は散在している

TAF: KMIA 262107Z 2621/2718 12010KT P6SM FEW025 SCT250 FM270000 10005KT P6SM FEW025 SCT250

4,000以上の空港の気象観測と天気予報(METAR報とTAF報)

利用可能な観測所は地図上に黄色い丸と赤い丸で示す。

丸の上にカーソルを重ねると観測所名を参照できる。

次にクリックすると気象観測と天気予報を参照できる。

マップの切り替え:黒色「×」印の緑ボタンをクリックして拡大、「-」印の緑ボタンをクリックして縮小、緑色の三角印をクリックして隣りの地図に切り替え


METAR-TAF: